createdAt,value
2022-11-19T00:02:16.440Z,21.90
2022-11-19T00:04:43.101Z,21.80
2022-11-19T00:07:09.808Z,22.70
2022-11-19T00:09:36.502Z,25.90
2022-11-19T00:12:21.797Z,22.83
2022-11-19T00:14:48.432Z,22.30
2022-11-19T00:17:15.073Z,23.20
2022-11-19T00:19:41.702Z,22.85
2022-11-19T00:22:08.330Z,23.02
2022-11-19T00:24:34.918Z,22.77
2022-11-19T00:27:04.613Z,25.40
2022-11-19T00:29:31.305Z,26.63
2022-11-19T00:31:57.950Z,26.33
2022-11-19T00:34:24.576Z,23.45
2022-11-19T00:36:51.363Z,26.13
2022-11-19T00:39:18.330Z,26.95
2022-11-19T00:41:45.176Z,26.77
2022-11-19T00:44:11.828Z,26.95
2022-11-19T00:46:38.470Z,27.88
2022-11-19T00:49:05.228Z,26.88
2022-11-19T00:51:31.828Z,28.13
2022-11-19T00:53:58.536Z,27.48
2022-11-19T00:56:26.122Z,28.52
2022-11-19T00:58:52.891Z,27.63
2022-11-19T01:01:20.633Z,28.25
2022-11-19T01:03:47.288Z,27.02
2022-11-19T01:06:18.878Z,28.23
2022-11-19T01:08:49.510Z,28.48
2022-11-19T01:11:20.197Z,29.10
2022-11-19T01:13:46.949Z,29.00
2022-11-19T01:16:26.280Z,30.73
2022-11-19T01:18:53.006Z,28.40
2022-11-19T01:21:20.815Z,28.05
2022-11-19T01:23:47.529Z,28.90
2022-11-19T01:26:14.882Z,27.83
2022-11-19T01:28:41.872Z,28.30
2022-11-19T01:31:09.353Z,28.42
2022-11-19T01:33:36.267Z,28.10
2022-11-19T01:36:05.193Z,30.25
2022-11-19T01:38:31.885Z,31.40
2022-11-19T01:40:58.561Z,30.02
2022-11-19T01:43:45.971Z,30.88
2022-11-19T01:46:14.395Z,30.73
2022-11-19T01:48:52.356Z,31.83
2022-11-19T01:51:27.352Z,31.95
2022-11-19T01:53:55.541Z,33.50
2022-11-19T01:56:22.792Z,32.95
2022-11-19T01:58:52.688Z,34.63
2022-11-19T02:01:19.527Z,33.85
2022-11-19T02:03:46.209Z,34.47
2022-11-19T02:06:12.815Z,34.35
2022-11-19T02:08:46.874Z,34.92
2022-11-19T02:11:35.328Z,34.78
2022-11-19T02:14:17.307Z,34.03
2022-11-19T02:17:11.775Z,34.70
2022-11-19T02:20:14.966Z,34.78
2022-11-19T02:22:59.594Z,35.05
2022-11-19T02:25:41.203Z,34.60
2022-11-19T02:28:16.173Z,36.28
2022-11-19T02:30:44.015Z,37.47
2022-11-19T02:33:16.532Z,36.10
2022-11-19T02:35:52.176Z,38.45
2022-11-19T02:38:29.361Z,37.38
2022-11-19T02:41:22.438Z,35.78
2022-11-19T02:43:49.058Z,35.63
2022-11-19T02:46:15.652Z,36.88
2022-11-19T02:48:47.673Z,36.50
2022-11-19T02:51:14.315Z,35.17
2022-11-19T02:53:40.901Z,36.72
2022-11-19T02:56:14.463Z,34.10
2022-11-19T02:59:03.881Z,35.33
2022-11-19T03:01:48.977Z,34.97
2022-11-19T03:04:30.533Z,36.65
2022-11-19T03:07:04.128Z,36.50
2022-11-19T03:09:31.218Z,35.25
2022-11-19T03:12:04.062Z,36.90
2022-11-19T03:14:52.684Z,36.20
2022-11-19T03:17:21.439Z,35.88
2022-11-19T03:19:55.583Z,34.25
2022-11-19T03:22:23.333Z,35.90
2022-11-19T03:24:49.929Z,34.85
2022-11-19T03:27:20.450Z,34.53
2022-11-19T03:32:19.542Z,32.13
2022-11-19T03:34:46.896Z,33.47
2022-11-19T03:37:13.575Z,34.55
2022-11-19T03:39:49.468Z,32.95
2022-11-19T03:42:16.363Z,34.28
2022-11-19T03:44:48.382Z,32.78
2022-11-19T03:47:18.096Z,32.25
2022-11-19T03:49:45.962Z,34.13
2022-11-19T03:52:15.057Z,34.25
2022-11-19T03:54:41.766Z,32.53
2022-11-19T03:57:09.184Z,34.10
2022-11-19T03:59:35.983Z,33.65
2022-11-19T04:02:05.339Z,34.42
2022-11-19T04:04:37.896Z,33.80
2022-11-19T04:07:13.074Z,33.00
2022-11-19T04:09:40.243Z,34.58
2022-11-19T04:12:07.400Z,33.42
2022-11-19T04:14:34.108Z,31.88
2022-11-19T04:17:00.794Z,33.78
2022-11-19T04:19:27.430Z,31.65
2022-11-19T04:21:54.163Z,33.03
2022-11-19T04:24:20.813Z,33.28
2022-11-19T04:26:47.494Z,32.58
2022-11-19T04:29:14.156Z,30.77
2022-11-19T04:31:40.760Z,31.05
2022-11-19T04:34:07.436Z,31.17
2022-11-19T04:36:34.249Z,30.23
2022-11-19T04:39:01.077Z,31.55
2022-11-19T04:41:27.835Z,30.10
2022-11-19T04:43:54.474Z,30.90
2022-11-19T04:46:21.151Z,30.92
2022-11-19T04:48:47.814Z,28.65
2022-11-19T04:51:14.503Z,30.20
2022-11-19T04:53:41.119Z,30.10
2022-11-19T04:56:07.844Z,29.63
2022-11-19T04:58:34.953Z,30.10
2022-11-19T05:01:01.606Z,30.33
2022-11-19T05:03:28.307Z,29.42
2022-11-19T05:05:54.921Z,29.63
2022-11-19T05:08:21.579Z,28.60
2022-11-19T05:10:48.201Z,30.25
2022-11-19T05:13:14.910Z,29.83
2022-11-19T05:15:41.533Z,29.58
2022-11-19T05:18:08.117Z,29.35
2022-11-19T05:20:34.839Z,30.65
2022-11-19T05:23:01.465Z,29.55
2022-11-19T05:25:28.162Z,29.73
2022-11-19T05:27:54.876Z,27.90
2022-11-19T05:30:21.837Z,28.58
2022-11-19T05:32:48.572Z,28.05
2022-11-19T05:35:15.225Z,27.95
2022-11-19T05:37:41.836Z,28.17
2022-11-19T05:40:09.033Z,29.35
2022-11-19T05:42:35.740Z,28.50
2022-11-19T05:45:02.384Z,29.65
2022-11-19T05:47:28.978Z,29.45
2022-11-19T05:49:55.593Z,31.67
2022-11-19T05:52:22.210Z,28.70
2022-11-19T05:54:49.904Z,28.25
2022-11-19T05:57:16.601Z,27.90
2022-11-19T05:59:44.232Z,27.98
2022-11-19T06:02:11.306Z,29.02
2022-11-19T06:04:38.114Z,29.13
2022-11-19T06:07:04.794Z,27.55
2022-11-19T06:09:31.547Z,29.38
2022-11-19T06:11:58.193Z,28.33
2022-11-19T06:14:25.477Z,28.63
2022-11-19T06:16:56.570Z,29.42
2022-11-19T06:19:23.470Z,28.60
2022-11-19T06:21:50.400Z,29.05
2022-11-19T06:24:17.013Z,27.88
2022-11-19T06:26:43.747Z,27.23
2022-11-19T06:29:11.769Z,27.48
2022-11-19T06:31:38.416Z,27.02
2022-11-19T06:34:05.114Z,27.90
2022-11-19T06:36:38.875Z,28.65
2022-11-19T06:39:08.068Z,29.42
2022-11-19T06:41:34.715Z,27.33
2022-11-19T06:44:01.399Z,27.73
2022-11-19T06:46:28.092Z,26.33
2022-11-19T06:48:54.798Z,28.20
2022-11-19T06:51:21.460Z,27.48
2022-11-19T06:53:48.118Z,27.13
2022-11-19T06:56:14.758Z,28.33
2022-11-19T06:58:41.386Z,27.27
2022-11-19T07:01:08.004Z,28.17
2022-11-19T07:03:35.612Z,28.02
2022-11-19T07:06:03.713Z,28.35
2022-11-19T07:08:33.699Z,28.05
2022-11-19T07:11:00.536Z,29.23
2022-11-19T07:13:49.861Z,29.27
2022-11-19T07:16:16.513Z,28.25
2022-11-19T07:18:43.170Z,29.10
2022-11-19T07:21:09.793Z,30.33
2022-11-19T07:23:36.526Z,29.65
2022-11-19T07:26:03.150Z,30.25
2022-11-19T07:28:29.839Z,27.30
2022-11-19T07:30:56.490Z,27.73
2022-11-19T07:33:23.145Z,28.35
2022-11-19T07:35:49.840Z,29.73
2022-11-19T07:38:16.488Z,27.38
2022-11-19T07:40:43.225Z,28.90
2022-11-19T07:43:09.836Z,28.67
2022-11-19T07:45:37.461Z,27.33
2022-11-19T07:48:04.253Z,28.05
2022-11-19T07:50:30.890Z,27.33
2022-11-19T07:53:00.764Z,28.08
2022-11-19T07:55:27.587Z,25.95
2022-11-19T07:57:54.493Z,28.17
2022-11-19T08:00:21.218Z,28.88
2022-11-19T08:02:47.964Z,27.27
2022-11-19T08:05:14.753Z,26.83
2022-11-19T08:07:41.724Z,27.70
2022-11-19T08:10:09.288Z,27.15
2022-11-19T08:12:35.940Z,28.60
2022-11-19T08:15:02.664Z,27.55
2022-11-19T08:17:48.053Z,28.65
2022-11-19T08:20:17.281Z,26.80
2022-11-19T08:22:44.001Z,27.58
2022-11-19T08:25:10.765Z,26.52
2022-11-19T08:27:37.505Z,26.20
2022-11-19T08:30:04.556Z,28.23
2022-11-19T08:32:31.226Z,26.65
2022-11-19T08:34:58.006Z,27.45
2022-11-19T08:37:24.696Z,27.98
2022-11-19T08:39:51.595Z,27.75
2022-11-19T08:42:36.682Z,27.58
2022-11-19T08:45:03.648Z,25.98
2022-11-19T08:47:30.356Z,26.27
2022-11-19T08:49:57.649Z,25.50
2022-11-19T08:52:24.288Z,25.90
2022-11-19T08:54:50.963Z,25.48
2022-11-19T08:57:17.557Z,25.35
2022-11-19T08:59:44.231Z,25.55
2022-11-19T09:02:11.317Z,25.50
2022-11-19T09:04:37.989Z,25.40
2022-11-19T09:07:04.605Z,24.45
2022-11-19T09:09:31.248Z,26.55
2022-11-19T09:11:57.887Z,26.63
2022-11-19T09:14:24.917Z,24.15
2022-11-19T09:16:51.638Z,24.17
2022-11-19T09:19:18.356Z,24.77
2022-11-19T09:21:45.059Z,26.42
2022-11-19T09:24:11.747Z,25.17
2022-11-19T09:26:38.417Z,26.02
2022-11-19T09:29:05.101Z,26.42
2022-11-19T09:31:31.726Z,24.17
2022-11-19T09:33:58.378Z,24.70
2022-11-19T09:36:25.050Z,25.17
2022-11-19T09:38:56.615Z,25.80
2022-11-19T09:41:43.465Z,24.42
2022-11-19T09:44:14.412Z,24.10
2022-11-19T09:47:12.659Z,23.23
2022-11-19T09:49:42.136Z,23.77
2022-11-19T09:52:12.482Z,25.40
2022-11-19T09:54:43.489Z,25.35
2022-11-19T09:57:12.834Z,25.67
2022-11-19T09:59:40.024Z,25.13
2022-11-19T10:02:20.212Z,25.75
2022-11-19T10:04:46.966Z,23.02
2022-11-19T10:07:55.738Z,22.10
2022-11-19T10:10:54.671Z,20.15
2022-11-19T10:13:33.506Z,20.42
2022-11-19T10:16:03.579Z,20.30
2022-11-19T10:18:52.736Z,22.00
2022-11-19T10:21:28.608Z,18.95
2022-11-19T10:24:02.647Z,20.65
2022-11-19T10:26:35.199Z,20.15
2022-11-19T10:29:02.003Z,18.02
2022-11-19T10:31:32.851Z,19.60
2022-11-19T10:34:19.621Z,19.23
2022-11-19T10:36:53.190Z,18.77
2022-11-19T10:39:32.268Z,18.13
2022-11-19T10:41:59.949Z,18.33
2022-11-19T10:44:51.649Z,18.45
2022-11-19T10:47:30.240Z,18.15
2022-11-19T10:49:56.870Z,15.65
2022-11-19T10:53:00.237Z,18.30
2022-11-19T10:55:37.766Z,17.67
2022-11-19T10:58:23.218Z,17.15
2022-11-19T11:00:49.942Z,17.15
2022-11-19T11:03:27.077Z,17.48
2022-11-19T11:06:03.164Z,18.23
2022-11-19T11:08:29.881Z,16.95
2022-11-19T11:10:56.635Z,17.63
2022-11-19T11:13:56.096Z,17.10
2022-11-19T11:16:28.089Z,17.23
2022-11-19T11:18:56.580Z,16.77
2022-11-19T11:21:36.915Z,16.77
2022-11-19T11:24:04.574Z,15.98
2022-11-19T11:26:33.626Z,16.33
2022-11-19T11:29:05.244Z,15.80
2022-11-19T11:31:36.540Z,15.05
2022-11-19T11:34:03.863Z,16.38
2022-11-19T11:36:34.170Z,14.45
2022-11-19T11:39:01.523Z,13.88
2022-11-19T11:44:25.001Z,15.05
2022-11-19T11:46:56.124Z,15.88
2022-11-19T11:49:27.320Z,14.93
2022-11-19T11:52:06.894Z,16.30
2022-11-19T11:54:33.502Z,15.75
2022-11-19T11:57:15.492Z,15.52
2022-11-19T11:59:42.180Z,16.88
2022-11-19T12:02:18.353Z,15.85
2022-11-19T12:04:45.061Z,17.02
2022-11-19T12:07:39.788Z,18.15
2022-11-19T12:10:21.815Z,18.40
2022-11-19T12:13:03.317Z,14.40
2022-11-19T12:15:43.802Z,14.77
2022-11-19T12:18:25.387Z,15.77
2022-11-19T12:21:00.288Z,15.18
2022-11-19T12:24:04.010Z,16.38
2022-11-19T12:27:08.492Z,14.95
2022-11-19T12:29:57.876Z,14.80
2022-11-19T12:32:40.356Z,13.95
2022-11-19T12:35:31.378Z,14.85
2022-11-19T12:38:04.804Z,15.00
2022-11-19T12:40:43.383Z,14.55
2022-11-19T12:43:21.941Z,15.00
2022-11-19T12:46:04.132Z,15.13
2022-11-19T12:48:43.667Z,15.57
2022-11-19T12:51:22.527Z,14.45
2022-11-19T12:54:01.093Z,14.52
2022-11-19T12:56:49.626Z,14.65
2022-11-19T12:59:51.646Z,15.20
2022-11-19T13:02:29.683Z,14.35
2022-11-19T13:05:01.184Z,16.23
2022-11-19T13:07:32.465Z,16.67
2022-11-19T13:10:14.833Z,16.90
2022-11-19T13:12:43.780Z,16.63
2022-11-19T13:15:26.644Z,16.38
2022-11-19T13:17:54.635Z,15.18
2022-11-19T13:20:23.317Z,15.23
2022-11-19T13:22:49.925Z,15.27
2022-11-19T13:25:20.721Z,16.48
2022-11-19T13:27:51.715Z,15.93
2022-11-19T13:30:23.648Z,15.38
2022-11-19T13:33:19.974Z,13.20
2022-11-19T13:35:54.011Z,13.70
2022-11-19T13:38:49.820Z,14.55
2022-11-19T13:41:33.801Z,13.90
2022-11-19T13:44:18.840Z,13.68
2022-11-19T13:46:45.449Z,14.05
2022-11-19T13:49:30.152Z,13.32
2022-11-19T13:52:08.327Z,14.18
2022-11-19T13:54:36.747Z,13.93
2022-11-19T13:57:03.955Z,13.23
2022-11-19T13:59:36.792Z,14.05
2022-11-19T14:02:41.104Z,13.95
2022-11-19T14:05:35.465Z,13.50
2022-11-19T14:08:05.928Z,13.70
2022-11-19T14:10:38.828Z,12.40
2022-11-19T14:13:23.528Z,12.77
2022-11-19T14:16:11.149Z,13.50
2022-11-19T14:18:57.600Z,13.23
2022-11-19T14:21:42.605Z,14.20
2022-11-19T14:24:45.876Z,12.70
2022-11-19T14:27:27.752Z,14.43
2022-11-19T14:30:02.259Z,13.77
2022-11-19T14:32:31.882Z,13.32
2022-11-19T14:35:01.527Z,18.00
2022-11-19T14:37:45.499Z,10.60
2022-11-19T14:40:18.211Z,12.93
2022-11-19T14:43:18.471Z,15.13
2022-11-19T14:46:06.313Z,17.05
2022-11-19T14:48:38.844Z,14.05
2022-11-19T14:51:15.645Z,13.68
2022-11-19T14:53:53.437Z,15.25
2022-11-19T14:56:22.039Z,15.98
2022-11-19T14:59:14.339Z,15.30
2022-11-19T15:02:13.465Z,15.18
2022-11-19T15:04:42.277Z,14.40
2022-11-19T15:07:12.489Z,14.50
2022-11-19T15:10:10.411Z,16.05
2022-11-19T15:12:43.168Z,15.38
2022-11-19T15:15:41.812Z,16.80
2022-11-19T15:18:13.852Z,15.25
2022-11-19T15:21:18.199Z,14.35
2022-11-19T15:24:22.455Z,15.07
2022-11-19T15:27:02.358Z,14.15
2022-11-19T15:29:44.699Z,14.30
2022-11-19T15:32:33.209Z,14.60
2022-11-19T15:35:30.961Z,13.45
2022-11-19T15:38:19.711Z,13.50
2022-11-19T15:40:46.684Z,14.43
2022-11-19T15:43:21.477Z,13.70
2022-11-19T15:45:53.096Z,14.05
2022-11-19T15:48:33.431Z,14.55
2022-11-19T15:51:00.573Z,13.95
2022-11-19T15:53:28.121Z,14.40
2022-11-19T15:56:07.545Z,14.27
2022-11-19T15:58:38.108Z,15.70
2022-11-19T16:03:31.923Z,14.70
2022-11-19T16:06:22.520Z,15.05
2022-11-19T16:11:39.680Z,14.25
2022-11-19T16:14:40.796Z,15.63
2022-11-19T16:17:43.048Z,25.48
2022-11-19T16:20:10.355Z,18.15
2022-11-19T16:22:44.784Z,15.35
2022-11-19T16:25:31.253Z,15.07
2022-11-19T16:27:59.500Z,14.30
2022-11-19T16:30:27.652Z,15.00
2022-11-19T16:33:01.019Z,15.75
2022-11-19T16:35:31.007Z,14.32
2022-11-19T16:37:58.293Z,14.57
2022-11-19T16:40:24.953Z,13.23
2022-11-19T16:42:56.009Z,14.23
2022-11-19T16:45:23.435Z,14.23
2022-11-19T16:47:59.397Z,14.55
2022-11-19T16:50:33.688Z,15.43
2022-11-19T16:53:00.925Z,14.48
2022-11-19T16:55:28.828Z,13.93
2022-11-19T16:57:56.091Z,14.82
2022-11-19T17:00:33.635Z,15.48
2022-11-19T17:03:00.641Z,14.48
2022-11-19T17:05:30.342Z,14.93
2022-11-19T17:08:12.170Z,14.43
2022-11-19T17:10:38.738Z,14.07
2022-11-19T17:13:20.697Z,14.25
2022-11-19T17:15:48.361Z,14.45
2022-11-19T17:18:19.081Z,15.70
2022-11-19T17:20:45.767Z,14.30
2022-11-19T17:23:16.796Z,14.32
2022-11-19T17:25:53.611Z,14.98
2022-11-19T17:28:40.767Z,15.15
2022-11-19T17:31:27.646Z,15.52
2022-11-19T17:34:09.536Z,16.00
2022-11-19T17:36:36.501Z,14.32
2022-11-19T17:39:11.684Z,14.27
2022-11-19T17:41:57.384Z,14.80
2022-11-19T17:44:40.078Z,14.25
2022-11-19T17:47:21.195Z,14.57
2022-11-19T17:49:48.831Z,14.57
2022-11-19T17:52:21.752Z,15.35
2022-11-19T17:54:49.366Z,14.65
2022-11-19T17:57:16.010Z,15.70
2022-11-19T17:59:42.677Z,15.73
2022-11-19T18:02:15.155Z,15.45
2022-11-19T18:04:43.509Z,14.85
2022-11-19T18:07:10.953Z,13.30
2022-11-19T18:09:38.214Z,12.98
2022-11-19T18:12:18.374Z,13.38
2022-11-19T18:14:45.157Z,13.73
2022-11-19T18:17:12.672Z,18.00
2022-11-19T18:19:39.390Z,13.20
2022-11-19T18:22:06.311Z,12.40
2022-11-19T18:24:33.019Z,11.43
2022-11-19T18:26:59.610Z,12.63
2022-11-19T18:29:32.051Z,12.60
2022-11-19T18:31:58.761Z,12.75
2022-11-19T18:34:25.446Z,11.25
2022-11-19T18:36:52.202Z,12.98
2022-11-19T18:39:19.225Z,11.57
2022-11-19T18:41:46.259Z,12.48
2022-11-19T18:44:35.512Z,12.45
2022-11-19T18:47:04.517Z,12.48
2022-11-19T18:49:33.338Z,12.05
2022-11-19T18:52:00.378Z,12.98
2022-11-19T18:54:27.000Z,12.30
2022-11-19T18:56:54.089Z,11.05
2022-11-19T18:59:21.076Z,11.35
2022-11-19T19:01:47.907Z,11.27
2022-11-19T19:04:14.843Z,10.98
2022-11-19T19:06:41.697Z,11.55
2022-11-19T19:09:08.517Z,10.80
2022-11-19T19:11:53.849Z,11.35
2022-11-19T19:14:20.449Z,10.82
2022-11-19T19:16:47.066Z,11.57
2022-11-19T19:19:19.296Z,11.02
2022-11-19T19:21:46.668Z,11.85
2022-11-19T19:24:13.508Z,11.73
2022-11-19T19:26:40.215Z,11.43
2022-11-19T19:29:07.097Z,11.93
2022-11-19T19:31:33.747Z,12.07
2022-11-19T19:34:00.656Z,13.15
2022-11-19T19:36:27.620Z,13.38
2022-11-19T19:38:54.238Z,13.30
2022-11-19T19:41:22.170Z,13.20
2022-11-19T19:43:49.317Z,13.57
2022-11-19T19:46:17.653Z,11.95
2022-11-19T19:48:45.472Z,13.50
2022-11-19T19:51:13.369Z,13.65
2022-11-19T19:53:41.631Z,14.65
2022-11-19T19:56:15.629Z,12.43
2022-11-19T19:58:45.434Z,12.20
2022-11-19T20:01:13.176Z,11.88
2022-11-19T20:03:39.992Z,13.95
2022-11-19T20:06:07.116Z,14.35
2022-11-19T20:08:38.192Z,12.55
2022-11-19T20:11:12.933Z,13.30
2022-11-19T20:13:40.078Z,13.00
2022-11-19T20:16:08.530Z,13.18
2022-11-19T20:18:37.748Z,12.70
2022-11-19T20:21:12.440Z,12.20
2022-11-19T20:23:39.700Z,12.23
2022-11-19T20:26:08.160Z,12.10
2022-11-19T20:28:34.733Z,11.77
2022-11-19T20:31:12.501Z,12.75
2022-11-19T20:33:39.460Z,12.13
2022-11-19T20:36:06.726Z,11.50
2022-11-19T20:38:36.373Z,11.20
2022-11-19T20:41:04.734Z,12.70
2022-11-19T20:43:52.792Z,12.50
2022-11-19T20:46:22.275Z,11.85
2022-11-19T20:48:49.001Z,11.98
2022-11-19T20:51:16.300Z,12.63
2022-11-19T20:53:43.339Z,11.65
2022-11-19T20:56:09.959Z,12.52
2022-11-19T20:58:36.531Z,12.38
2022-11-19T21:01:05.956Z,12.30
2022-11-19T21:03:33.843Z,12.27
2022-11-19T21:06:01.355Z,12.30
2022-11-19T21:08:28.306Z,12.27
2022-11-19T21:11:06.269Z,13.00
2022-11-19T21:13:32.902Z,12.25
2022-11-19T21:15:59.618Z,12.57
2022-11-19T21:18:26.449Z,12.68
2022-11-19T21:20:53.120Z,12.18
2022-11-19T21:23:20.391Z,12.75
2022-11-19T21:25:46.970Z,12.73
2022-11-19T21:28:14.161Z,12.38
2022-11-19T21:30:40.936Z,11.55
2022-11-19T21:33:07.500Z,11.68
2022-11-19T21:35:34.107Z,11.60
2022-11-19T21:38:00.674Z,12.23
2022-11-19T21:40:27.322Z,12.77
2022-11-19T21:42:53.983Z,12.52
2022-11-19T21:45:20.592Z,10.98
2022-11-19T21:47:47.200Z,11.02
2022-11-19T21:50:15.344Z,11.63
2022-11-19T21:52:41.933Z,11.10
2022-11-19T21:55:08.887Z,11.98
2022-11-19T21:57:35.484Z,11.38
2022-11-19T22:00:02.310Z,11.15
2022-11-19T22:02:29.019Z,11.35
2022-11-19T22:04:55.689Z,11.63
2022-11-19T22:07:22.462Z,11.85
2022-11-19T22:09:49.148Z,11.85
2022-11-19T22:12:15.840Z,11.43
2022-11-19T22:14:42.467Z,12.43
2022-11-19T22:17:09.207Z,11.25
2022-11-19T22:19:36.029Z,11.70
2022-11-19T22:22:03.404Z,11.93
2022-11-19T22:24:30.214Z,13.45
2022-11-19T22:26:56.876Z,11.88
2022-11-19T22:29:23.670Z,13.07
2022-11-19T22:31:50.465Z,12.38
2022-11-19T22:34:17.171Z,12.07
2022-11-19T22:36:43.812Z,12.20
2022-11-19T22:39:11.423Z,12.35
2022-11-19T22:41:38.265Z,12.77
2022-11-19T22:44:05.328Z,13.25
2022-11-19T22:46:31.953Z,12.90
2022-11-19T22:48:58.580Z,13.05
2022-11-19T22:51:25.524Z,12.93
2022-11-19T22:53:52.801Z,13.10
2022-11-19T22:56:21.175Z,13.13
2022-11-19T22:58:48.158Z,13.20
2022-11-19T23:01:19.367Z,13.35
2022-11-19T23:03:46.331Z,12.85
2022-11-19T23:06:12.968Z,13.10
2022-11-19T23:08:39.572Z,13.52
2022-11-19T23:11:06.562Z,12.25
2022-11-19T23:13:34.522Z,12.77
2022-11-19T23:16:11.618Z,12.30
2022-11-19T23:18:51.610Z,12.18
2022-11-19T23:21:24.711Z,12.20
2022-11-19T23:23:51.365Z,13.13
2022-11-19T23:26:22.985Z,12.68
2022-11-19T23:28:49.772Z,12.40
2022-11-19T23:31:33.188Z,12.75
2022-11-19T23:33:59.874Z,12.23
2022-11-19T23:36:37.443Z,12.07
2022-11-19T23:39:05.286Z,12.70
2022-11-19T23:41:32.800Z,12.80
2022-11-19T23:43:59.380Z,12.90
2022-11-19T23:46:30.558Z,11.70
2022-11-19T23:48:57.585Z,11.27
2022-11-19T23:51:31.528Z,12.57
2022-11-19T23:53:58.229Z,12.60
2022-11-19T23:56:25.536Z,12.10
2022-11-19T23:58:52.298Z,13.52
